Terminal Aerodrome Forecast
Issued by NWS Brownsville, TX

Home | Current Version | Previous Version | Text Only | Print | Product List | Glossary On
Versions: 1 2 3 4 5 6 7 8 9 10 11 12 13 14 15 16 17 18 19
000
FTUS44 KBRO 191100
TAFHRL
TAF
KHRL 191120Z 1912/2012 00000KT P6SM SCT250
     FM191600 12012G18KT P6SM BKN035 OVC200
     FM192100 14014G20KT P6SM SCT040 OVC200
     FM200200 14008KT P6SM BKN020 OVC200=

USA.gov is the U.S. government's official web portal to all federal, state and local government web resources and services.